Time;durP1;ratioP1;P1;durP2;ratioP2;P2;SDS_P1;SDS_P2;PMS_P1;PMS_P2;Temp;Humidity;BMP_temperature;BMP_pressure;BME280_temperature;BME280_humidity;BME280_pressure;Samples;Min_cycle;Max_cycle;Signal;HPM_P1;HPM_P2
2024/04/23 00:02:07;;;;;;;7.88;5.38;;;1.20;99.90;;;;;;5348851;26;20019;-71
2024/04/23 00:04:32;;;;;;;7.57;5.35;;;1.20;99.90;;;;;;5388450;26;20471;-71
2024/04/23 00:07:02;;;;;;;9.70;6.18;;;1.20;99.90;;;;;;5391096;26;20259;-71
2024/04/23 00:09:28;;;;;;;9.55;5.43;;;1.20;99.90;;;;;;5373367;26;20008;-71
2024/04/23 00:11:55;;;;;;;7.68;5.07;;;1.20;99.90;;;;;;5347244;26;20350;-71
2024/04/23 00:14:21;;;;;;;8.90;5.85;;;1.10;99.90;;;;;;5400230;26;20018;-71
2024/04/23 00:17:00;;;;;;;7.80;5.95;;;1.10;99.90;;;;;;5379246;26;20018;-71
2024/04/23 00:19:26;;;;;;;8.05;5.63;;;1.10;99.90;;;;;;5338826;26;19995;-71
2024/04/23 00:21:52;;;;;;;8.88;5.35;;;1.10;99.90;;;;;;5387761;26;19996;-71
2024/04/23 00:24:17;;;;;;;7.30;5.50;;;1.00;99.90;;;;;;5349587;26;20000;-71
2024/04/23 00:26:57;;;;;;;8.77;5.85;;;1.00;99.90;;;;;;5347226;26;20015;-71
2024/04/23 00:29:23;;;;;;;7.78;5.40;;;0.90;99.90;;;;;;5379985;26;20077;-71
2024/04/23 00:31:50;;;;;;;7.65;5.60;;;0.90;99.90;;;;;;5352858;26;20466;-71
2024/04/23 00:34:16;;;;;;;6.88;5.03;;;0.70;99.90;;;;;;5384623;26;19999;-72
2024/04/23 00:36:51;;;;;;;8.60;6.07;;;0.80;99.90;;;;;;5407500;26;20456;-71
2024/04/23 00:39:17;;;;;;;10.82;6.05;;;0.80;99.90;;;;;;5379338;26;20000;-71
2024/04/23 00:41:44;;;;;;;10.10;5.78;;;0.80;99.90;;;;;;5378427;26;20012;-71
2024/04/23 00:44:09;;;;;;;9.85;5.90;;;0.80;99.90;;;;;;5380043;26;20491;-71
2024/04/23 00:46:36;;;;;;;8.88;5.80;;;0.70;99.90;;;;;;5409491;26;20010;-71
2024/04/23 00:49:02;;;;;;;9.18;6.13;;;0.70;99.90;;;;;;5412980;26;20000;-71
2024/04/23 00:51:29;;;;;;;8.57;5.85;;;0.70;99.90;;;;;;5414520;26;20000;-70
2024/04/23 00:53:55;;;;;;;10.07;6.45;;;0.70;99.90;;;;;;5413254;26;20467;-71
2024/04/23 00:56:22;;;;;;;8.85;6.30;;;0.70;99.90;;;;;;5383262;26;20006;-71
2024/04/23 00:58:48;;;;;;;9.57;6.45;;;;;;;;;;5413257;26;19996;-71
2024/04/23 01:01:15;;;;;;;8.63;5.90;;;;;;;;;;5415274;26;20037;-71
2024/04/23 01:03:41;;;;;;;9.32;6.55;;;;;;;;;;5413615;26;20409;-71
2024/04/23 01:06:07;;;;;;;9.27;5.80;;;;;;;;;;5373871;26;20047;-71
2024/04/23 01:08:33;;;;;;;8.90;6.18;;;;;;;;;;5378738;26;20001;-70
2024/04/23 01:10:59;;;;;;;9.40;6.40;;;;;;;;;;5378132;26;20000;-71
2024/04/23 01:13:25;;;;;;;10.93;6.15;;;;;;;;;;5417078;26;20466;-72
2024/04/23 01:15:51;;;;;;;9.38;6.25;;;;;;;;;;5400826;26;20011;-71
2024/04/23 01:18:20;;;;;;;9.50;6.20;;;;;;;;;;5381677;26;19995;-71
2024/04/23 01:20:46;;;;;;;10.27;6.07;;;;;;;;;;5381003;26;20008;-71
2024/04/23 01:23:17;;;;;;;10.25;5.63;;;;;;;;;;5348018;26;19996;-71
2024/04/23 01:25:45;;;;;;;10.35;6.43;;;;;;;;;;5377433;26;20447;-71
2024/04/23 01:28:12;;;;;;;9.07;6.43;;;;;;;;;;5379373;26;19992;-71
2024/04/23 01:30:38;;;;;;;8.60;6.57;;;;;;;;;;5379178;26;19997;-71
2024/04/23 01:33:07;;;;;;;9.85;6.20;;;;;;;;;;5402115;26;20003;-70
2024/04/23 01:35:33;;;;;;;9.45;5.70;;;;;;;;;;5390825;26;20011;-71
2024/04/23 01:38:00;;;;;;;10.15;5.40;;;;;;;;;;5381428;26;20544;-70
2024/04/23 01:40:26;;;;;;;10.82;6.57;;;;;;;;;;5414538;26;19995;-70
2024/04/23 01:42:52;;;;;;;10.70;6.50;;;;;;;;;;5412724;26;19995;-70
2024/04/23 01:45:19;;;;;;;10.15;6.50;;;;;;;;;;5411476;26;20471;-70
2024/04/23 01:47:45;;;;;;;9.02;6.60;;;;;;;;;;5412297;26;20010;-70
2024/04/23 01:50:15;;;;;;;10.55;6.22;;;;;;;;;;5401557;26;20012;-70
2024/04/23 01:52:41;;;;;;;8.77;5.53;;;;;;;;;;5377251;26;20019;-71
2024/04/23 01:55:08;;;;;;;10.75;6.88;;;;;;;;;;5347871;26;20000;-71
2024/04/23 01:57:34;;;;;;;8.85;6.13;;;;;;;;;;5347256;26;20019;-71
2024/04/23 02:00:05;;;;;;;9.50;6.15;;;;;;;;;;5347050;26;20000;-71
2024/04/23 02:02:32;;;;;;;11.20;6.30;;;0.00;99.90;;;;;;5401297;26;20011;-70
2024/04/23 02:05:00;;;;;;;10.75;6.20;;;0.20;99.90;;;;;;5391367;26;20239;-71
2024/04/23 02:07:26;;;;;;;12.50;6.30;;;0.30;99.90;;;;;;5333025;26;20465;-70
2024/04/23 02:09:52;;;;;;;10.93;6.45;;;0.20;99.90;;;;;;5306909;26;20016;-71
2024/04/23 02:12:21;;;;;;;8.40;6.55;;;0.20;99.90;;;;;;5308201;26;20006;-71
2024/04/23 02:14:49;;;;;;;10.10;6.75;;;0.10;99.90;;;;;;5308116;26;20060;-71
2024/04/23 02:17:16;;;;;;;11.32;7.07;;;0.10;99.90;;;;;;5339983;26;20024;-71
2024/04/23 02:19:42;;;;;;;11.93;7.00;;;0.10;99.90;;;;;;5324429;26;20012;-71
2024/04/23 02:22:08;;;;;;;9.20;6.50;;;0.10;99.90;;;;;;5305658;27;20010;-71
2024/04/23 02:24:34;;;;;;;13.45;7.80;;;0.10;99.90;;;;;;5330281;26;20005;-71
2024/04/23 02:26:59;;;;;;;12.73;8.00;;;0.10;99.90;;;;;;5337482;26;20005;-71
2024/04/23 02:29:27;;;;;;;9.80;6.82;;;0.10;99.90;;;;;;5339986;26;19997;-71
2024/04/23 02:31:52;;;;;;;11.40;8.02;;;0.10;99.90;;;;;;5331286;26;19997;-71
2024/04/23 02:34:18;;;;;;;9.73;6.82;;;0.10;99.90;;;;;;5304953;26;20042;-71
2024/04/23 02:36:44;;;;;;;13.63;8.00;;;0.10;99.90;;;;;;5304001;26;20080;-71
2024/04/23 02:39:09;;;;;;;11.02;6.75;;;0.10;99.90;;;;;;5277053;27;19997;-71
2024/04/23 02:41:48;;;;;;;12.15;8.68;;;0.10;99.90;;;;;;5305507;27;20491;-71
2024/04/23 02:44:16;;;;;;;11.60;7.50;;;0.10;99.90;;;;;;5276804;27;20485;-71
2024/04/23 02:46:42;;;;;;;8.60;6.50;;;0.10;99.90;;;;;;5321792;26;20016;-71
2024/04/23 02:49:08;;;;;;;10.85;6.55;;;0.10;99.90;;;;;;5327094;26;20487;-71
2024/04/23 02:51:34;;;;;;;11.25;7.38;;;0.00;99.90;;;;;;5321019;26;19997;-71
2024/04/23 02:54:01;;;;;;;15.73;7.93;;;;;;;;;;5327447;26;20118;-71
2024/04/23 02:56:27;;;;;;;14.13;7.63;;;0.00;99.90;;;;;;5320672;26;20009;-71
2024/04/23 02:58:52;;;;;;;12.10;7.85;;;0.00;99.90;;;;;;5327759;26;20001;-72
2024/04/23 03:01:19;;;;;;;10.75;7.22;;;;;;;;;;5326457;26;19996;-72
2024/04/23 03:03:45;;;;;;;10.93;7.90;;;;;;;;;;5258542;27;20361;-71
2024/04/23 03:06:11;;;;;;;11.75;7.75;;;;;;;;;;5334913;26;20001;-71
2024/04/23 03:08:37;;;;;;;11.07;7.68;;;;;;;;;;5327220;26;20000;-72
2024/04/23 03:11:03;;;;;;;11.77;7.28;;;;;;;;;;5309378;26;20016;-71
2024/04/23 03:13:29;;;;;;;10.30;7.40;;;;;;;;;;5310487;26;20001;-72
2024/04/23 03:15:55;;;;;;;15.35;7.85;;;;;;;;;;5341237;26;20024;-71
2024/04/23 03:18:21;;;;;;;11.65;7.72;;;;;;;;;;5313271;26;20005;-71
2024/04/23 03:20:47;;;;;;;11.35;7.75;;;-0.10;99.90;;;;;;5344189;26;20033;-71
2024/04/23 03:23:12;;;;;;;14.75;7.75;;;-0.20;99.90;;;;;;5344787;26;20001;-71
2024/04/23 03:25:44;;;;;;;12.55;7.40;;;-0.30;99.90;;;;;;5313979;26;20344;-71
2024/04/23 03:28:10;;;;;;;11.93;7.72;;;-0.40;99.90;;;;;;5340133;26;20005;-71
2024/04/23 03:30:35;;;;;;;11.40;8.38;;;-0.40;99.90;;;;;;5343194;26;19997;-71
2024/04/23 03:33:02;;;;;;;11.57;7.75;;;-0.50;99.90;;;;;;5341638;26;20039;-71
2024/04/23 03:35:28;;;;;;;10.15;7.35;;;-0.50;99.90;;;;;;5310391;26;20032;-71
2024/04/23 03:37:53;;;;;;;10.68;7.47;;;-0.50;99.90;;;;;;5312285;26;20000;-71
2024/04/23 03:40:19;;;;;;;12.38;8.80;;;-0.60;99.90;;;;;;5344008;26;20011;-71
2024/04/23 03:42:46;;;;;;;13.57;8.05;;;-0.80;99.90;;;;;;5337433;26;20001;-71
2024/04/23 03:45:12;;;;;;;15.18;8.70;;;-0.80;99.90;;;;;;5312918;26;20033;-71
2024/04/23 03:47:37;;;;;;;15.60;8.80;;;-0.80;99.90;;;;;;5342879;26;20024;-71
2024/04/23 03:50:03;;;;;;;13.75;8.65;;;-0.90;99.90;;;;;;5342218;26;20012;-71
2024/04/23 03:52:30;;;;;;;14.23;8.35;;;-0.90;99.90;;;;;;5343352;26;20011;-71
2024/04/23 03:54:55;;;;;;;15.23;9.13;;;-0.90;99.90;;;;;;5342658;26;20046;-71
2024/04/23 03:57:21;;;;;;;15.15;9.10;;;-0.80;99.90;;;;;;5344025;26;20036;-71
2024/04/23 03:59:46;;;;;;;14.65;10.15;;;-0.80;99.90;;;;;;5343003;26;20460;-71
2024/04/23 04:07:41;;;;;;;13.27;8.52;;;-0.80;99.90;;;;;;5356646;26;20018;-71
2024/04/23 04:10:07;;;;;;;13.05;8.35;;;-0.80;99.90;;;;;;5384815;26;20000;-71
2024/04/23 04:12:32;;;;;;;14.07;8.60;;;-0.80;99.90;;;;;;5383559;26;19999;-70
2024/04/23 04:14:58;;;;;;;14.70;9.35;;;-0.90;99.90;;;;;;5382417;26;20022;-71
2024/04/23 04:17:24;;;;;;;14.63;9.43;;;-1.00;99.90;;;;;;5382662;26;20007;-71
2024/04/23 04:19:49;;;;;;;15.18;10.18;;;-1.00;99.90;;;;;;5413937;26;20003;-70
2024/04/23 04:22:15;;;;;;;16.02;9.45;;;-1.00;99.90;;;;;;5413287;26;20061;-72
2024/04/23 04:24:41;;;;;;;16.13;10.05;;;-1.00;99.90;;;;;;5404962;26;20043;-72
2024/04/23 04:27:07;;;;;;;12.93;9.80;;;-1.00;99.90;;;;;;5412539;26;20007;-71
2024/04/23 04:29:32;;;;;;;15.57;9.98;;;-0.90;99.90;;;;;;5406172;26;20058;-72
2024/04/23 04:31:58;;;;;;;15.20;9.20;;;-0.90;99.90;;;;;;5410145;26;20072;-72
2024/04/23 04:34:24;;;;;;;14.90;9.02;;;-0.90;99.90;;;;;;5406174;26;20043;-72
2024/04/23 04:36:49;;;;;;;14.07;9.00;;;-1.00;99.90;;;;;;5359944;26;20004;-71
2024/04/23 04:39:15;;;;;;;20.05;10.07;;;-1.00;99.90;;;;;;5404717;26;20191;-72
2024/04/23 04:41:42;;;;;;;16.05;10.02;;;-0.90;99.90;;;;;;5398272;26;20000;-70
2024/04/23 04:44:09;;;;;;;16.23;10.05;;;-0.90;99.90;;;;;;5378921;26;20004;-71
2024/04/23 04:46:34;;;;;;;15.35;10.50;;;-0.90;99.90;;;;;;5408845;26;20137;-71
2024/04/23 04:49:00;;;;;;;15.38;10.65;;;-0.80;99.90;;;;;;5411342;26;20123;-71
2024/04/23 04:51:26;;;;;;;18.30;11.52;;;-0.70;99.90;;;;;;5376626;26;20030;-70
2024/04/23 04:53:53;;;;;;;17.58;11.35;;;-0.60;99.90;;;;;;5395600;26;20363;-70
2024/04/23 04:56:19;;;;;;;17.45;10.20;;;-0.60;99.90;;;;;;5409213;26;20412;-71
2024/04/23 04:58:44;;;;;;;18.10;10.93;;;-0.60;99.90;;;;;;5407103;26;20012;-73
2024/04/23 05:01:10;;;;;;;19.02;10.57;;;-0.50;99.90;;;;;;5410231;26;19995;-72
2024/04/23 05:03:36;;;;;;;16.45;10.43;;;-0.50;99.90;;;;;;5418205;26;20003;-72
2024/04/23 05:06:01;;;;;;;15.52;9.82;;;-0.40;99.90;;;;;;5426623;26;20000;-72
2024/04/23 05:08:27;;;;;;;13.50;9.75;;;-0.40;99.90;;;;;;5395985;26;20011;-70
2024/04/23 05:10:54;;;;;;;15.32;10.00;;;-0.30;99.90;;;;;;5396008;26;20077;-72
2024/04/23 05:13:20;;;;;;;13.13;8.57;;;-0.20;99.90;;;;;;5412582;26;20018;-71
2024/04/23 05:15:45;;;;;;;13.05;9.15;;;-0.20;99.90;;;;;;5412575;26;20458;-71
2024/04/23 05:18:11;;;;;;;14.45;9.07;;;-0.10;99.90;;;;;;5422746;26;20015;-71
2024/04/23 05:20:37;;;;;;;14.63;9.48;;;-0.10;99.90;;;;;;5413974;26;20478;-71
2024/04/23 05:23:02;;;;;;;11.40;7.88;;;0.00;99.90;;;;;;5418447;26;20050;-71
2024/04/23 05:25:29;;;;;;;12.73;8.13;;;0.20;99.90;;;;;;5423556;26;19995;-71
2024/04/23 05:27:54;;;;;;;11.98;7.90;;;0.40;99.90;;;;;;5406031;26;20673;-72
2024/04/23 05:33:05;;;;;;;13.20;7.88;;;0.50;99.90;;;;;;5410762;26;20585;-72
2024/04/23 05:35:31;;;;;;;10.85;7.57;;;0.50;99.90;;;;;;5381934;26;19995;-72
2024/04/23 05:37:56;;;;;;;15.02;8.38;;;0.60;99.90;;;;;;5401561;26;20102;-72
2024/04/23 05:40:22;;;;;;;12.18;7.95;;;0.90;99.90;;;;;;5407884;26;20006;-73
2024/04/23 05:42:48;;;;;;;9.73;6.78;;;1.00;99.90;;;;;;5405014;26;19992;-71
2024/04/23 05:45:15;;;;;;;14.93;7.10;;;1.00;99.90;;;;;;5413250;26;20469;-72
2024/04/23 05:48:18;;;;;;;9.65;7.15;;;1.10;99.90;;;;;;5405767;26;20010;-71
2024/04/23 05:51:22;;;;;;;16.30;8.05;;;1.10;99.90;;;;;;5381219;26;20015;-72
2024/04/23 05:54:25;;;;;;;12.73;6.90;;;1.30;99.90;;;;;;5379878;26;20010;-70
2024/04/23 05:56:51;;;;;;;11.98;6.97;;;1.30;99.90;;;;;;5411685;26;20071;-73
2024/04/23 05:59:17;;;;;;;11.52;7.07;;;1.50;99.90;;;;;;5361621;26;20010;-72
2024/04/23 06:01:43;;;;;;;9.15;7.13;;;1.60;99.90;;;;;;5429698;26;19991;-72
2024/04/23 06:04:10;;;;;;;15.55;7.15;;;1.70;99.90;;;;;;5351713;26;20000;-72
2024/04/23 06:06:35;;;;;;;12.65;6.90;;;1.80;99.90;;;;;;5351109;26;20000;-72
2024/04/23 06:09:01;;;;;;;11.35;7.15;;;1.80;99.90;;;;;;5377182;26;20011;-72
2024/04/23 06:11:27;;;;;;;11.45;7.10;;;1.90;99.90;;;;;;5414580;26;20018;-73
2024/04/23 06:14:06;;;;;;;8.52;6.47;;;2.00;99.90;;;;;;5394214;26;19996;-72
2024/04/23 06:16:33;;;;;;;11.32;7.25;;;2.00;99.90;;;;;;5417464;26;20459;-72
2024/04/23 06:18:58;;;;;;;9.68;7.53;;;2.00;99.90;;;;;;5415116;26;20471;-73
2024/04/23 06:21:24;;;;;;;11.13;7.82;;;2.10;99.90;;;;;;5383739;26;19995;-72
2024/04/23 06:23:51;;;;;;;9.63;7.05;;;2.10;99.90;;;;;;5370719;26;20004;-72
2024/04/23 06:26:17;;;;;;;11.50;6.30;;;;;;;;;;5413895;26;20007;-73
2024/04/23 06:28:43;;;;;;;11.05;7.32;;;;;;;;;;5368966;26;19995;-73
2024/04/23 06:31:14;;;;;;;11.23;6.63;;;2.50;99.90;;;;;;5418587;26;20019;-72
2024/04/23 06:33:40;;;;;;;12.05;7.65;;;2.50;99.90;;;;;;5377813;26;19999;-72
2024/04/23 06:36:06;;;;;;;11.55;7.40;;;2.60;99.90;;;;;;5379819;26;20015;-72
2024/04/23 06:38:31;;;;;;;11.75;7.50;;;2.70;99.90;;;;;;5410596;26;20014;-73
2024/04/23 06:40:57;;;;;;;11.93;7.32;;;2.80;99.90;;;;;;5379471;26;20347;-74
2024/04/23 06:43:23;;;;;;;9.95;7.13;;;2.90;99.90;;;;;;5406971;26;20031;-72
2024/04/23 06:45:52;;;;;;;17.80;7.22;;;2.90;99.90;;;;;;5413924;26;20000;-72
2024/04/23 06:48:18;;;;;;;10.52;6.50;;;2.90;99.90;;;;;;5413583;26;20015;-72
2024/04/23 06:50:44;;;;;;;8.85;5.97;;;3.00;99.90;;;;;;5413550;26;20483;-72
2024/04/23 06:53:13;;;;;;;7.85;5.60;;;3.10;99.90;;;;;;5329261;26;20011;-72
2024/04/23 06:55:39;;;;;;;13.75;6.82;;;3.20;99.90;;;;;;5416314;26;20014;-73
2024/04/23 06:58:05;;;;;;;11.13;5.97;;;3.30;99.90;;;;;;5414615;26;19995;-73
2024/04/23 07:00:31;;;;;;;8.05;5.53;;;3.30;99.90;;;;;;5416066;26;20068;-73
2024/04/23 07:02:56;;;;;;;10.45;6.32;;;3.20;99.90;;;;;;5382310;26;20003;-73
2024/04/23 07:05:23;;;;;;;10.20;5.85;;;3.30;99.90;;;;;;5414606;26;20000;-73
2024/04/23 07:07:50;;;;;;;9.25;5.78;;;3.40;99.90;;;;;;5413629;26;20076;-72
2024/04/23 07:10:17;;;;;;;7.65;5.65;;;3.50;99.90;;;;;;5415247;26;20014;-73
2024/04/23 07:12:42;;;;;;;8.77;5.85;;;3.60;99.90;;;;;;5413803;26;20000;-74
2024/04/23 07:15:08;;;;;;;9.90;5.80;;;3.70;99.90;;;;;;5361483;26;20001;-71
2024/04/23 07:17:34;;;;;;;9.73;6.28;;;3.80;99.90;;;;;;5415390;26;20008;-71
2024/04/23 07:19:59;;;;;;;10.77;5.82;;;3.80;99.90;;;;;;5383406;26;20931;-71
2024/04/23 07:22:26;;;;;;;8.00;5.72;;;3.70;99.90;;;;;;5410712;26;20011;-72
2024/04/23 07:24:51;;;;;;;8.13;6.38;;;3.80;99.90;;;;;;5384485;26;20039;-72
2024/04/23 07:27:17;;;;;;;8.30;5.65;;;3.80;99.90;;;;;;5415470;26;19999;-72
2024/04/23 07:29:43;;;;;;;9.93;5.93;;;3.90;99.90;;;;;;5383483;26;20004;-72
2024/04/23 07:32:12;;;;;;;8.63;5.90;;;3.90;99.90;;;;;;5414631;26;20009;-71
2024/04/23 07:34:38;;;;;;;11.75;6.30;;;4.10;99.90;;;;;;5418235;26;19999;-72
2024/04/23 07:37:04;;;;;;;10.57;6.53;;;4.30;99.90;;;;;;5398061;26;20021;-72
2024/04/23 07:39:29;;;;;;;8.35;5.97;;;4.30;99.90;;;;;;5414093;26;20003;-72
2024/04/23 07:41:55;;;;;;;13.98;5.97;;;4.30;99.90;;;;;;5413138;26;20003;-72
2024/04/23 07:44:21;;;;;;;10.23;6.18;;;4.30;99.90;;;;;;5417463;26;19999;-72
2024/04/23 07:46:46;;;;;;;8.93;6.13;;;4.30;99.90;;;;;;5412653;26;20049;-72
2024/04/23 07:49:12;;;;;;;14.02;6.45;;;4.40;99.90;;;;;;5414981;26;20077;-72
2024/04/23 07:51:37;;;;;;;8.10;5.93;;;4.50;99.90;;;;;;5383297;26;20004;-71
2024/04/23 07:54:03;;;;;;;8.27;6.35;;;4.60;99.90;;;;;;5382308;26;20003;-72
2024/04/23 07:56:29;;;;;;;11.32;6.28;;;4.60;99.90;;;;;;5413939;26;20076;-72
2024/04/23 07:58:55;;;;;;;14.57;6.60;;;4.80;99.90;;;;;;5382190;26;20009;-72
2024/04/23 08:01:21;;;;;;;8.82;5.60;;;4.80;99.90;;;;;;5414075;26;20000;-72
2024/04/23 08:03:48;;;;;;;10.57;5.63;;;5.00;99.90;;;;;;5381976;26;20006;-72
2024/04/23 08:06:14;;;;;;;8.43;5.65;;;5.10;99.90;;;;;;5413898;26;20018;-72
2024/04/23 08:08:40;;;;;;;10.63;5.30;;;5.20;99.90;;;;;;5381408;26;20436;-72
2024/04/23 08:11:06;;;;;;;7.60;5.50;;;5.30;99.90;;;;;;5415008;26;20041;-71
2024/04/23 08:13:32;;;;;;;8.88;6.20;;;5.30;99.90;;;;;;5414440;26;20011;-72
2024/04/23 08:15:58;;;;;;;11.25;6.00;;;5.40;99.90;;;;;;5347827;26;20012;-72
2024/04/23 08:18:23;;;;;;;9.00;6.20;;;5.40;99.90;;;;;;5398670;26;20020;-72
2024/04/23 08:20:51;;;;;;;12.10;6.60;;;5.60;99.90;;;;;;5382060;26;19999;-71
2024/04/23 08:23:19;;;;;;;8.80;6.28;;;5.70;99.90;;;;;;5409582;26;20014;-74
2024/04/23 08:25:46;;;;;;;9.77;6.30;;;5.80;99.90;;;;;;5361395;26;20004;-73
2024/04/23 08:28:12;;;;;;;13.85;6.47;;;5.80;99.90;;;;;;5413674;26;20014;-73
2024/04/23 08:30:37;;;;;;;7.90;5.80;;;5.80;99.90;;;;;;5414384;26;20004;-73
2024/04/23 08:33:03;;;;;;;10.60;6.88;;;5.80;99.90;;;;;;5381728;26;20452;-73
2024/04/23 08:35:29;;;;;;;9.18;6.55;;;5.80;99.90;;;;;;5413838;26;20011;-74
2024/04/23 08:37:56;;;;;;;9.57;5.93;;;6.00;99.90;;;;;;5413214;26;19999;-73
2024/04/23 08:40:23;;;;;;;11.73;6.10;;;6.00;99.90;;;;;;5414966;26;19999;-73
2024/04/23 08:42:51;;;;;;;9.35;6.13;;;6.00;99.90;;;;;;5381700;26;19999;-73
2024/04/23 08:45:21;;;;;;;11.63;6.18;;;6.10;99.90;;;;;;5414238;26;20004;-73
2024/04/23 08:47:47;;;;;;;9.20;6.60;;;6.10;99.90;;;;;;5412516;26;20014;-73
2024/04/23 08:50:14;;;;;;;14.32;5.93;;;6.20;99.90;;;;;;5382486;26;20362;-73
2024/04/23 08:52:41;;;;;;;7.57;5.72;;;6.20;99.90;;;;;;5412781;26;20011;-73
2024/04/23 08:55:08;;;;;;;10.25;5.95;;;6.20;99.90;;;;;;5415206;26;20003;-73
2024/04/23 08:57:40;;;;;;;11.48;5.68;;;;;;;;;;5359183;26;20000;-73
2024/04/23 09:00:23;;;;;;;9.88;6.22;;;;;;;;;;5414662;26;20083;-73
2024/04/23 09:02:53;;;;;;;7.57;5.50;;;;;;;;;;5412766;26;20073;-73
2024/04/23 09:05:21;;;;;;;8.18;5.00;;;;;;;;;;5411001;26;20008;-73
2024/04/23 09:07:47;;;;;;;13.65;5.38;;;;;;;;;;5388361;26;20351;-73
2024/04/23 09:10:13;;;;;;;11.65;5.75;;;7.30;99.90;;;;;;5414078;26;20027;-73
2024/04/23 09:12:46;;;;;;;15.20;5.22;;;7.30;99.90;;;;;;5411841;26;20068;-73
2024/04/23 09:15:12;;;;;;;9.02;5.90;;;7.50;99.90;;;;;;5383318;26;20011;-73
2024/04/23 09:17:54;;;;;;;10.05;5.93;;;7.60;99.90;;;;;;5382915;26;19996;-73
2024/04/23 09:20:22;;;;;;;9.13;6.30;;;7.70;99.90;;;;;;5414687;26;20028;-73
2024/04/23 09:22:59;;;;;;;8.55;5.68;;;;;;;;;;5407927;26;20854;-73
2024/04/23 09:25:25;;;;;;;9.18;5.85;;;;;;;;;;5389057;26;20012;-73
2024/04/23 09:27:52;;;;;;;8.90;5.18;;;;;;;;;;5377549;26;19999;-73
2024/04/23 09:30:25;;;;;;;6.68;5.22;;;;;;;;;;5379459;26;20469;-73
2024/04/23 09:33:02;;;;;;;12.77;6.07;;;;;;;;;;5409036;26;20069;-73
2024/04/23 09:35:28;;;;;;;7.20;5.63;;;;;;;;;;5373033;26;20000;-72
2024/04/23 09:37:54;;;;;;;11.10;5.38;;;;;;;;;;5408930;26;20004;-72
2024/04/23 09:40:20;;;;;;;7.20;5.15;;;;;;;;;;5379403;26;20014;-72
2024/04/23 09:42:52;;;;;;;11.85;5.60;;;;;;;;;;5408998;26;20000;-72
2024/04/23 09:45:21;;;;;;;8.32;5.70;;;;;;;;;;5378634;26;20003;-73
2024/04/23 09:47:47;;;;;;;10.35;5.25;;;;;;;;;;5377922;26;20347;-72
2024/04/23 09:50:13;;;;;;;8.98;5.30;;;9.10;99.90;;;;;;5411481;26;19999;-72
2024/04/23 09:52:39;;;;;;;8.73;4.85;;;9.20;99.90;;;;;;5409863;26;20010;-72
2024/04/23 09:55:06;;;;;;;11.57;5.93;;;9.00;97.10;;;;;;5409010;26;20347;-72
2024/04/23 09:57:34;;;;;;;6.25;4.18;;;8.90;97.30;;;;;;5410027;26;19995;-72
2024/04/23 10:00:01;;;;;;;7.10;4.97;;;9.00;97.00;;;;;;5410178;26;20287;-72
2024/04/23 10:02:28;;;;;;;8.63;4.97;;;9.00;96.70;;;;;;5410766;26;20047;-72
2024/04/23 10:05:05;;;;;;;10.43;5.07;;;9.10;96.80;;;;;;5409370;26;20022;-72
2024/04/23 10:07:48;;;;;;;8.50;5.30;;;9.20;96.60;;;;;;5410299;26;20027;-72
2024/04/23 10:10:22;;;;;;;6.57;5.07;;;9.20;95.80;;;;;;5379436;26;19999;-73
2024/04/23 10:12:50;;;;;;;7.72;4.80;;;9.10;96.00;;;;;;5409419;26;20475;-72
2024/04/23 10:15:31;;;;;;;9.13;5.80;;;8.80;95.70;;;;;;5411273;26;20084;-72
2024/04/23 10:18:12;;;;;;;7.90;5.07;;;8.90;96.50;;;;;;5410115;26;20471;-73
2024/04/23 10:20:44;;;;;;;6.90;4.78;;;9.20;95.80;;;;;;5407147;26;20011;-73
2024/04/23 10:23:10;;;;;;;8.73;4.90;;;9.40;95.60;;;;;;5388205;26;20019;-73
2024/04/23 10:25:37;;;;;;;6.38;4.18;;;9.30;95.20;;;;;;5413084;26;20011;-73
2024/04/23 10:28:04;;;;;;;6.43;4.15;;;9.30;94.20;;;;;;5383908;26;20000;-73
2024/04/23 10:30:31;;;;;;;7.72;4.45;;;9.60;93.80;;;;;;5416039;26;20092;-73
2024/04/23 10:32:58;;;;;;;6.40;4.60;;;;;;;;;;5414575;26;19999;-73
2024/04/23 10:35:29;;;;;;;7.70;4.25;;;10.40;92.80;;;;;;5379003;26;20005;-73
2024/04/23 10:37:58;;;;;;;7.60;4.40;;;10.70;92.40;;;;;;5403411;26;20018;-73
2024/04/23 10:40:23;;;;;;;6.30;4.68;;;10.70;92.40;;;;;;5416720;26;20003;-73
2024/04/23 10:42:49;;;;;;;7.13;4.40;;;10.60;92.50;;;;;;5414625;26;20006;-72
2024/04/23 10:45:15;;;;;;;5.55;4.18;;;10.50;92.00;;;;;;5416550;26;20077;-72
2024/04/23 10:47:51;;;;;;;7.20;4.30;;;10.30;92.00;;;;;;5384272;26;20141;-72
2024/04/23 10:50:26;;;;;;;6.30;4.47;;;9.90;91.90;;;;;;5416839;26;20011;-72
2024/04/23 10:53:01;;;;;;;5.55;4.72;;;9.90;92.30;;;;;;5414248;26;20463;-71
2024/04/23 10:55:28;;;;;;;6.80;4.38;;;9.90;91.60;;;;;;5415874;26;20470;-72
2024/04/23 10:57:55;;;;;;;8.55;4.10;;;9.90;92.30;;;;;;5415061;26;20462;-73
2024/04/23 11:00:35;;;;;;;5.55;4.13;;;10.10;91.50;;;;;;5416339;26;20346;-73
2024/04/23 11:03:16;;;;;;;;;;;10.20;90.20;;;;;;5415346;26;20599;-73
2024/04/23 11:05:46;;;;;;;5.28;4.38;;;10.30;90.40;;;;;;5378858;26;19925;-72
2024/04/23 11:08:22;;;;;;;4.20;3.55;;;10.80;89.20;;;;;;5415559;26;20342;-73
2024/04/23 11:11:12;;;;;;;4.80;3.72;;;11.10;90.40;;;;;;5415324;26;20014;-71
2024/04/23 11:13:40;;;;;;;7.18;4.10;;;11.10;90.30;;;;;;5414570;26;20146;-71
2024/04/23 11:16:16;;;;;;;4.50;3.53;;;10.90;88.90;;;;;;5361476;26;20020;-71
2024/04/23 11:18:44;;;;;;;7.85;4.03;;;10.90;90.10;;;;;;5411671;26;20475;-71
2024/04/23 11:21:10;;;;;;;6.07;3.58;;;11.20;88.70;;;;;;5396140;26;20000;-71
2024/04/23 11:23:42;;;;;;;6.38;4.03;;;11.60;86.50;;;;;;5380167;26;20081;-72
2024/04/23 11:26:09;;;;;;;4.20;3.67;;;12.10;85.00;;;;;;5355994;26;20081;-72
2024/04/23 11:28:39;;;;;;;4.03;3.50;;;12.40;82.50;;;;;;5415368;26;20003;-72
2024/04/23 11:31:05;;;;;;;4.30;3.05;;;12.50;83.20;;;;;;5415442;26;20003;-72
2024/04/23 11:33:32;;;;;;;5.40;3.60;;;12.70;81.60;;;;;;5414567;26;20007;-72
2024/04/23 11:35:58;;;;;;;6.00;3.50;;;13.00;80.50;;;;;;5382142;26;20007;-72
2024/04/23 11:38:24;;;;;;;4.28;3.10;;;12.90;80.70;;;;;;5410186;26;20009;-72
2024/04/23 11:41:08;;;;;;;3.60;3.20;;;12.80;80.60;;;;;;5399556;26;20000;-72
2024/04/23 11:43:35;;;;;;;5.75;4.20;;;12.70;83.00;;;;;;5384541;26;20027;-72
2024/04/23 11:46:01;;;;;;;5.28;3.97;;;12.50;82.40;;;;;;5414605;26;20014;-71
2024/04/23 11:48:27;;;;;;;4.45;3.92;;;12.10;84.00;;;;;;5383562;26;20840;-71
2024/04/23 11:50:54;;;;;;;4.32;3.92;;;11.80;85.10;;;;;;5414842;26;20003;-71
2024/04/23 11:53:21;;;;;;;4.20;3.55;;;11.40;84.30;;;;;;5415362;26;20007;-71
2024/04/23 11:55:47;;;;;;;6.88;3.67;;;11.20;84.60;;;;;;5382448;26;20007;-71
2024/04/23 11:58:13;;;;;;;5.25;3.90;;;11.40;83.60;;;;;;5392059;26;20359;-71
2024/04/23 12:00:40;;;;;;;4.50;3.90;;;11.60;83.60;;;;;;5384474;26;20018;-72
2024/04/23 12:03:07;;;;;;;7.13;3.42;;;11.70;83.10;;;;;;5415535;26;20012;-72
2024/04/23 12:05:34;;;;;;;5.00;3.30;;;11.40;83.10;;;;;;5415975;26;20000;-72
2024/04/23 12:08:00;;;;;;;6.28;4.00;;;11.30;83.20;;;;;;5392499;26;20460;-71
2024/04/23 12:10:37;;;;;;;6.47;4.45;;;11.10;83.20;;;;;;5353337;26;20123;-71
2024/04/23 12:13:03;;;;;;;5.53;3.97;;;11.00;84.50;;;;;;5414911;26;20542;-71
2024/04/23 12:15:31;;;;;;;5.07;4.20;;;10.80;83.50;;;;;;5394776;26;20011;-71
2024/04/23 12:17:57;;;;;;;6.43;4.25;;;10.70;84.50;;;;;;5386084;26;20085;-71
2024/04/23 12:20:23;;;;;;;5.10;4.20;;;10.80;84.10;;;;;;5397886;26;20008;-72
2024/04/23 12:22:49;;;;;;;4.55;3.35;;;10.90;83.30;;;;;;5338658;26;20011;-71
2024/04/23 12:25:15;;;;;;;6.30;3.97;;;11.10;83.90;;;;;;5394226;26;20085;-71
2024/04/23 12:27:46;;;;;;;6.45;3.63;;;11.20;81.90;;;;;;5396477;26;20000;-71
2024/04/23 12:30:16;;;;;;;4.53;3.70;;;11.30;84.00;;;;;;5400770;26;20481;-70
2024/04/23 12:32:42;;;;;;;8.05;4.20;;;11.20;84.10;;;;;;5376278;26;20040;-71
2024/04/23 12:35:08;;;;;;;5.30;3.83;;;11.20;84.00;;;;;;5404694;26;20000;-73
2024/04/23 12:37:34;;;;;;;4.28;3.70;;;11.20;84.50;;;;;;5399165;26;20004;-73
2024/04/23 12:40:04;;;;;;;4.85;4.10;;;11.20;84.50;;;;;;5407226;26;20240;-73
2024/04/23 12:42:31;;;;;;;6.63;3.77;;;11.20;84.30;;;;;;5400339;26;20093;-72
2024/04/23 12:44:56;;;;;;;5.97;3.70;;;11.10;84.10;;;;;;5407051;26;19996;-72
2024/04/23 12:47:22;;;;;;;4.38;3.97;;;11.40;85.10;;;;;;5401341;26;20032;-73
2024/04/23 12:49:49;;;;;;;5.38;3.30;;;11.50;83.10;;;;;;5397499;26;20072;-73
2024/04/23 12:52:15;;;;;;;5.13;3.90;;;11.80;83.40;;;;;;5382066;26;19996;-73
2024/04/23 12:54:42;;;;;;;4.50;3.70;;;12.20;82.40;;;;;;5403347;26;20007;-74
2024/04/23 12:57:11;;;;;;;6.55;3.83;;;12.50;83.00;;;;;;5401745;26;20011;-72
2024/04/23 12:59:37;;;;;;;4.82;4.18;;;12.60;83.90;;;;;;5411425;26;20069;-72
2024/04/23 13:02:10;;;;;;;5.93;3.90;;;12.60;81.00;;;;;;5351170;26;20011;-72
2024/04/23 13:04:36;;;;;;;4.97;3.60;;;12.20;81.70;;;;;;5374201;26;20328;-73
2024/04/23 13:07:02;;;;;;;8.60;4.13;;;12.10;81.90;;;;;;5383605;26;20043;-73
2024/04/23 13:09:28;;;;;;;5.65;3.95;;;11.90;82.70;;;;;;5371946;26;20334;-73
2024/04/23 13:11:53;;;;;;;6.38;4.15;;;11.90;84.60;;;;;;5401994;26;20011;-72
2024/04/23 13:14:19;;;;;;;4.97;3.58;;;11.90;83.30;;;;;;5410845;26;20023;-73
2024/04/23 13:16:46;;;;;;;5.05;3.47;;;11.90;81.90;;;;;;5398913;26;20078;-73